Flight Track Log - Related Links

Times and Time Zones

All times are in EDT time to prevent confusion due to time zone crossing. See the N75ZM flight status page for this flight to view local times or setup timezone preferences in your user account.

Time Position Orientation Groundspeed Altitude Reporting Facility
EDT Latitude Longitude Course Direction KTS MPH feet Rate Location/Type
Fri 11:29:28 AM 27.4653 -80.3397 150° Southeast 147 169 7,000  Level Miami Center
Fri 11:30:28 AM 27.4386 -80.3225 150° Southeast 118 136 2,700 -1,700 Descending Miami Center
Fri 11:31:28 AM 27.4331 -80.2847 99° East 92 106 3,600 800 Climbing Miami Center
Fri 11:32:28 AM 27.4297 -80.2472 96° East 109 125 4,300 650 Climbing Miami Center
Fri 11:33:28 AM 27.4244 -80.2072 98° East 120 138 4,900 600 Climbing Miami Center
Fri 11:34:28 AM 27.4233 -80.1700 92° East 127 146 5,500 550 Climbing Miami Center
Fri 11:35:28 AM 27.4200 -80.1253 95° East 127 146 6,000 500 Climbing Miami Center
Fri 11:36:28 AM 27.4044 -80.0828 112° Southeast 127 146 6,500 450 Climbing Miami Center
Fri 11:37:28 AM 27.3842 -80.0472 123° Southeast 137 158 6,900 350 Climbing Miami Center
Fri 11:38:28 AM 27.3619 -80.0139 127° Southeast 147 169 7,200 150 Climbing Miami Center
Fri 11:39:28 AM 27.3381 -79.9711 122° Southeast 152 175 7,200 -50 Level Miami Center
Fri 11:40:28 AM 27.3097 -79.9258 125° Southeast 158 182 7,100 -50 Descending Miami Center
Fri 11:41:28 AM 27.2814 -79.8808 125° Southeast 158 182 7,100  Level Miami Center
Fri 11:42:28 AM 27.2592 -79.8381 120° Southeast 163 188 7,100  Level Miami Center
Fri 11:43:28 AM 27.2350 -79.7978 124° Southeast 163 188 7,100  Level Miami Center
Fri 11:44:28 AM 27.2089 -79.7550 124° Southeast 163 188 7,100  Level Miami Center
Fri 11:45:28 AM 27.1783 -79.7075 126° Southeast 170 196 7,100  Level Miami Center
Fri 11:46:28 AM 27.1519 -79.6650 125° Southeast 170 196 7,100  Level Miami Center
Fri 11:47:28 AM 27.1278 -79.6200 121° Southeast 170 196 7,100  Level Miami Center
Fri 11:48:28 AM 27.1036 -79.5822 126° Southeast 170 196 7,100  Level Miami Center
Fri 11:49:28 AM 27.0750 -79.5372 126° Southeast 170 196 7,100  Level Miami Center
Fri 11:50:28 AM 27.0489 -79.4897 122° Southeast 175 201 7,100  Level Miami Center
Fri 11:51:28 AM 27.0203 -79.4494 129° Southeast 175 201 7,100  Level Miami Center
Fri 11:52:28 AM 26.9981 -79.4094 122° Southeast 170 196 7,100  Level Miami Center
Fri 11:53:28 AM 26.9717 -79.3669 125° Southeast 170 196 7,100  Level Miami Center
Fri 11:54:28 AM 26.9433 -79.3197 124° Southeast 170 196 7,100  Level Miami Center
Fri 11:55:28 AM 26.9189 -79.2750 122° Southeast 176 203 7,100  Level Miami Center
Fri 11:56:28 AM 26.8883 -79.2325 129° Southeast 176 203 7,100  Level Miami Center
Fri 11:57:28 AM 26.8619 -79.1875 123° Southeast 176 203 7,100  Level Miami Center
Fri 11:58:28 AM 26.8353 -79.1475 127° Southeast 166 191 7,100 200 Level Miami Center
Fri 11:59:28 AM 26.8108 -79.1050 123° Southeast 172 198 7,500 450 Climbing Miami Center
Fri 12:00:28 PM 26.7864 -79.0675 126° Southeast 162 186 8,000 500 Climbing Miami Center
Fri 12:01:28 PM 26.7642 -79.0275 122° Southeast 150 173 8,500 500 Climbing Miami Center
Fri 12:02:28 PM 26.7417 -78.9922 126° Southeast 150 173 9,000 300 Climbing Miami Center
Fri 12:03:28 PM 26.7172 -78.9522 124° Southeast 150 173 9,100 50 Climbing Miami Center
Fri 12:04:28 PM 26.6925 -78.9122 125° Southeast 150 173 9,100  Level Miami Center
Fri 12:05:28 PM 26.6597 -78.8650 128° Southeast 155 178 9,100  Level Miami Center
Fri 12:06:28 PM 26.6353 -78.8228 123° Southeast 160 184 9,100  Level Miami Center
Fri 12:07:28 PM 26.6108 -78.7783 122° Southeast 165 190 9,100  Level Miami Center
Fri 12:08:28 PM 26.5842 -78.7383 127° Southeast 165 190 9,100  Level Miami Center
Fri 12:09:28 PM 26.5619 -78.6917 118° Southeast 176 203 9,100  Level Miami Center
Fri 12:10:28 PM 26.5542 -78.6450 101° East 163 188 9,100  Level Miami Center
Fri 12:11:28 PM 26.5506 -78.5939 95° East 163 188 9,100  Level Miami Center
Fri 12:12:28 PM 26.5533 -78.5381 87° East 163 188 9,100  Level Miami Center
Fri 12:13:28 PM 26.5517 -78.4894 92° East 163 188 9,100  Level Miami Center
Fri 12:14:28 PM 26.5458 -78.4428 98° East 163 188 9,100  Level Miami Center
Fri 12:15:28 PM 26.5464 -78.3894 89° East 157 181 9,100  Level Miami Center
Fri 12:16:28 PM 26.5492 -78.3267 87° East 163 188 9,100 -50 Level Miami Center
Fri 12:17:28 PM 26.5478 -78.2756 92° East 163 188 9,000 -200 Descending Miami Center
Fri 12:18:28 PM 26.5461 -78.2175 92° East 173 199 8,700 -300 Descending Miami Center
Fri 12:19:28 PM 26.5425 -78.1617 94° East 173 199 8,400 -250 Descending Miami Center
Fri 12:20:28 PM 26.5408 -78.1058 92° East 178 205 8,200 -250 Descending Miami Center
Fri 12:21:28 PM 26.5394 -78.0408 91° East 191 220 7,900 -300 Descending Miami Center
Fri 12:22:28 PM 26.5356 -77.9919 95° East 179 206 7,600 -350 Descending Miami Center
Fri 12:23:28 PM 26.5381 -77.9200 88° East 191 220 7,200 -350 Descending Miami Center
Fri 12:24:28 PM 26.5386 -77.8714 89° East 191 220 6,900 -350 Descending Miami Center
Fri 12:25:28 PM 26.5411 -77.8111 87° East 191 220 6,500 -400 Descending Miami Center
Fri 12:26:28 PM 26.5497 -77.7506 81° East 189 217 6,100 -400 Descending Miami Center

Login

Don't have an account? Register now (free) for customized features, flight alerts, and more!